This is the latest recevied weather packets stored in our database for station/object OE-11049. If no packets are shown the sender has not sent any weather packets the latest 10 day(s).
| Time | Temp. | Humidity | Pressure | Rain* | Wind** | Luminosity | Snow |
|---|---|---|---|---|---|---|---|
| 1787834116 | 28.89° C | 45% | 1012 hPa | 0 mm | - | 666 W/m² | - |
| 1787833517 | 28.89° C | 48% | 1012.1 hPa | 0 mm | - | 631 W/m² | - |
| 1787832690 | 28.33° C | 46% | 1012.4 hPa | 0 mm | - | 614 W/m² | - |
| 1787832317 | 28.33° C | 48% | 1012.5 hPa | 0 mm | - | 690 W/m² | - |
| 1787831716 | 28.33° C | 47% | 1012.5 hPa | 0 mm | - | 748 W/m² | - |
| 1787830890 | 28.33° C | 47% | 1012.7 hPa | 0 mm | - | 742 W/m² | - |
| 1787830516 | 27.78° C | 48% | 1012.8 hPa | 0 mm | - | 742 W/m² | - |
| 1787829916 | 27.78° C | 49% | 1012.8 hPa | 0 mm | - | 748 W/m² | - |
| 1787829090 | 27.22° C | 50% | 1012.9 hPa | 0 mm | - | 584 W/m² | - |
| 1787828717 | 27.22° C | 54% | 1012.8 hPa | 0 mm | - | 479 W/m² | - |
| 1787828117 | 27.22° C | 56% | 1012.9 hPa | 0 mm | - | 807 W/m² | - |
| 1787827289 | 26.67° C | 59% | 1013.3 hPa | 0 mm | - | 561 W/m² | - |
| 1787826916 | 27.22° C | 55% | 1013.2 hPa | 0 mm | - | 736 W/m² | - |
| 1787826317 | 27.22° C | 58% | 1013.1 hPa | 0 mm | - | 731 W/m² | - |
| 1787825490 | 26.11° C | 58% | 1013.3 hPa | 0 mm | - | 468 W/m² | - |
| 1787825117 | 25.56° C | 56% | 1013.4 hPa | 0 mm | - | 462 W/m² | - |
| 1787824517 | 25.56° C | 56% | 1013.3 hPa | 0 mm | - | 532 W/m² | - |
| 1787823690 | 25.56° C | 57% | 1013.2 hPa | 0 mm | - | 526 W/m² | - |
| 1787823317 | 25° C | 59% | 1013.3 hPa | 0 mm | - | 514 W/m² | - |
| 1787822716 | 25° C | 58% | 1013.3 hPa | 0 mm | - | 549 W/m² | - |
| 1787821890 | 24.44° C | 61% | 1013.6 hPa | 0 mm | - | 631 W/m² | - |
| 1787821516 | 23.89° C | 60% | 1013.6 hPa | 0 mm | - | 608 W/m² | - |
| 1787820917 | 24.44° C | 64% | 1013.6 hPa | 0 mm | - | 590 W/m² | - |
| 1787820090 | 23.89° C | 63% | 1013.9 hPa | 0 mm | - | 561 W/m² | - |
| 1787819717 | 22.78° C | 65% | 1014.1 hPa | 0 mm | - | 532 W/m² | - |
* Rain latest hour (hover to see other rain measurements)
** Current wind speed in m/s (hover to see current wind gust speed)